METAR AND TAF INFORMATION
METAR FOR LGKR
ADDS - METARS form results

(1901 UTC 20 August 2017)
Data provider http://aviationweather.gov/adds/metars/
 
METAR text: LGKR 201850Z 28003KT CAVOK 27/23 Q1010 NOSIG
Conditions at: LGKR (IOANNIS KAPODIST, GR) observed 1850 UTC 20 August 2017
Temperature: 27.0°C (81°F)
Dewpoint: 23.0°C (73°F) [RH = 79%]
Pressure (altimeter): 29.82 inches Hg (1010.0 mb)
Winds: from the W (280 degrees) at 3 MPH (3 knots; 1.6 m/s)
Visibility: 6 or more miles (10+ km)
Ceiling: ceiling and visibility are OK
Clouds: unknown
Weather: no significant weather observed at this time

METAR text: LGKR 201820Z 33003KT CAVOK 27/23 Q1010 NOSIG
Conditions at: LGKR (IOANNIS KAPODIST, GR) observed 1820 UTC 20 August 2017
Temperature: 27.0°C (81°F)
Dewpoint: 23.0°C (73°F) [RH = 79%]
Pressure (altimeter): 29.82 inches Hg (1010.0 mb)
Winds: from the NNW (330 degrees) at 3 MPH (3 knots; 1.6 m/s)
Visibility: 6 or more miles (10+ km)
Ceiling: ceiling and visibility are OK
Clouds: unknown
Weather: no significant weather observed at this time

Forecast for: LGKR (IOANNIS KAPODIST, GR)
Text: TAF LGKR 201700Z 2018/2118 VRB05KT 9999 FEW025
Forecast period: 1800 UTC 20 August 2017 to 1100 UTC 21 August 2017
Forecast type: FROM: standard forecast or significant change
Winds: variable direction winds at 6 MPH (5 knots; 2.6 m/s)
Visibility: 6 or more miles (10+ km)
Clouds: few clouds at 2500 feet AGL
Weather: no significant weather forecast for this period
Text: TEMPO 2100/2109 SCT020 BKN080
Forecast period: 0000 to 0900 UTC 21 August 2017
Forecast type: TEMPORARY: The following changes expected for less than half the time period
Ceiling: 8000 feet AGL
Clouds: scattered clouds at 2000 feet AGL
broken clouds at 8000 feet AGL
Weather: no significant weather forecast for this period
Text: BECMG 2111/2113 30010KT
Forecast period: 1100 to 1800 UTC 21 August 2017
Forecast type: BECOMING: Conditions expected to become as follows by 1300 UTC 21 August 2017
Winds: from the WNW (300 degrees) at 12 MPH (10 knots; 5.2 m/s)
Visibility: 6 or more miles (10+ km)
Clouds: few clouds at 2500 feet AGL
Weather: no significant weather forecast for this period

 AIRPORT MAP

 RUNWAY INFORMATION
Runway 17 Runway length 7792 ft Runway width 148 ft
Runway elevation 5 ft Runway displaced threshold 1348 ft Runway heading 169
Runway 35 Runway length 7792 ft Runway width 148 ft
Runway elevation 5 ft Runway displaced threshold 213 ft Runway heading 349

 AIRPORT FREQUENCIES
Type A/G Name KERKIRA RD Frequency 563.7 MHZ
Type APP Name KERKIRA AP Frequency 118.075 MHZ
Type ATIS Name ATIS Frequency 126.35 MHZ
Type TWR Name KERKIRA TW Frequency 120.85 MHZ

 AIRPORT NEAR NAVIGATION AIDS